createdAt,value
2022-10-26T00:00:07.218Z,5.30
2022-10-26T00:02:41.092Z,5.20
2022-10-26T00:05:11.272Z,5.30
2022-10-26T00:10:11.088Z,5.30
2022-10-26T00:12:42.191Z,5.20
2022-10-26T00:15:12.663Z,5.30
2022-10-26T00:17:42.409Z,5.30
2022-10-26T00:20:12.425Z,5.20
2022-10-26T00:22:42.439Z,5.20
2022-10-26T00:25:12.164Z,5.10
2022-10-26T00:27:43.518Z,5.30
2022-10-26T00:30:16.292Z,5.10
2022-10-26T00:32:46.189Z,5.40
2022-10-26T00:35:22.951Z,5.30
2022-10-26T00:37:59.977Z,4.20
2022-10-26T00:40:31.049Z,5.10
2022-10-26T00:43:03.234Z,5.20
2022-10-26T00:45:33.359Z,5.30
2022-10-26T00:48:07.818Z,5.30
2022-10-26T00:50:43.214Z,5.10
2022-10-26T00:53:14.246Z,5.10
2022-10-26T00:55:49.084Z,4.90
2022-10-26T00:58:21.848Z,4.90
2022-10-26T01:00:51.710Z,4.80
2022-10-26T01:03:22.450Z,4.80
2022-10-26T01:05:52.543Z,4.80
2022-10-26T01:08:24.775Z,4.80
2022-10-26T01:10:54.690Z,4.70
2022-10-26T01:13:26.930Z,4.60
2022-10-26T01:16:05.546Z,4.60
2022-10-26T01:18:44.826Z,4.50
2022-10-26T01:21:42.781Z,4.50
2022-10-26T01:24:25.445Z,4.40
2022-10-26T01:27:15.148Z,4.30
2022-10-26T01:30:18.530Z,4.30
2022-10-26T01:32:58.251Z,4.40
2022-10-26T01:35:32.953Z,4.50
2022-10-26T01:38:06.946Z,4.50
2022-10-26T01:40:41.517Z,4.50
2022-10-26T01:43:14.439Z,4.50
2022-10-26T01:45:48.845Z,4.40
2022-10-26T01:48:20.733Z,4.40
2022-10-26T01:50:54.609Z,4.40
2022-10-26T01:53:23.791Z,4.30
2022-10-26T01:55:54.081Z,4.10
2022-10-26T01:58:46.004Z,4.00
2022-10-26T02:01:42.846Z,4.00
2022-10-26T02:04:26.485Z,4.00
2022-10-26T02:07:03.966Z,4.10
2022-10-26T02:09:44.137Z,4.10
2022-10-26T02:12:21.841Z,4.10
2022-10-26T02:14:52.932Z,4.10
2022-10-26T02:17:29.836Z,4.10
2022-10-26T02:20:03.642Z,4.10
2022-10-26T02:22:39.189Z,4.10
2022-10-26T02:25:12.487Z,4.10
2022-10-26T02:27:46.018Z,4.20
2022-10-26T02:30:16.608Z,4.10
2022-10-26T02:32:50.564Z,4.10
2022-10-26T02:35:24.804Z,4.00
2022-10-26T02:37:56.596Z,3.90
2022-10-26T02:40:28.937Z,3.90
2022-10-26T02:43:03.260Z,3.80
2022-10-26T02:45:36.880Z,3.80
2022-10-26T02:48:10.172Z,3.80
2022-10-26T02:50:49.525Z,3.80
2022-10-26T02:53:34.012Z,3.80
2022-10-26T02:56:10.822Z,3.80
2022-10-26T02:58:47.584Z,3.80
2022-10-26T03:01:17.381Z,3.90
2022-10-26T03:03:50.648Z,3.80
2022-10-26T03:06:24.552Z,3.70
2022-10-26T03:08:58.963Z,3.80
2022-10-26T03:11:28.713Z,3.60
2022-10-26T03:13:59.345Z,3.50
2022-10-26T03:16:29.009Z,3.50
2022-10-26T03:19:00.026Z,3.60
2022-10-26T03:21:43.095Z,3.70
2022-10-26T03:24:12.600Z,3.70
2022-10-26T03:26:41.836Z,3.60
2022-10-26T03:29:11.203Z,3.60
2022-10-26T03:31:40.483Z,3.60
2022-10-26T03:34:11.239Z,3.60
2022-10-26T03:36:40.915Z,3.70
2022-10-26T03:39:10.083Z,3.70
2022-10-26T03:41:42.732Z,3.60
2022-10-26T03:44:12.604Z,3.50
2022-10-26T03:46:41.786Z,3.40
2022-10-26T03:49:12.604Z,3.40
2022-10-26T03:51:42.282Z,3.30
2022-10-26T03:54:12.123Z,3.30
2022-10-26T03:56:41.766Z,3.30
2022-10-26T03:59:10.986Z,3.20
2022-10-26T04:01:40.884Z,3.30
2022-10-26T04:04:12.477Z,3.60
2022-10-26T04:06:41.622Z,3.60
2022-10-26T04:09:11.242Z,3.50
2022-10-26T04:11:40.303Z,3.50
2022-10-26T04:14:09.942Z,3.40
2022-10-26T04:16:39.289Z,3.30
2022-10-26T04:19:08.584Z,3.30
2022-10-26T04:21:39.755Z,3.30
2022-10-26T04:24:09.646Z,3.30
2022-10-26T04:26:39.190Z,3.30
2022-10-26T04:29:09.630Z,3.20
2022-10-26T04:31:39.161Z,3.30
2022-10-26T04:34:08.874Z,3.40
2022-10-26T04:36:40.111Z,3.30
2022-10-26T04:39:12.106Z,3.20
2022-10-26T04:41:43.942Z,3.30
2022-10-26T04:44:15.488Z,3.10
2022-10-26T04:46:47.495Z,3.00
2022-10-26T04:49:18.431Z,2.90
2022-10-26T04:51:49.411Z,3.00
2022-10-26T04:54:21.443Z,3.40
2022-10-26T04:56:51.226Z,3.00
2022-10-26T04:59:20.633Z,2.10
2022-10-26T05:01:52.314Z,2.90
2022-10-26T05:04:22.067Z,3.00
2022-10-26T05:06:55.066Z,2.90
2022-10-26T05:09:35.022Z,3.00
2022-10-26T05:12:07.941Z,3.00
2022-10-26T05:14:37.463Z,3.00
2022-10-26T05:17:07.451Z,3.00
2022-10-26T05:19:36.810Z,3.40
2022-10-26T05:22:07.921Z,3.10
2022-10-26T05:24:39.124Z,2.90
2022-10-26T05:27:10.567Z,2.90
2022-10-26T05:29:41.707Z,3.30
2022-10-26T05:32:11.257Z,2.90
2022-10-26T05:34:43.275Z,2.90
2022-10-26T05:37:14.373Z,2.90
2022-10-26T05:39:47.782Z,3.00
2022-10-26T05:42:19.274Z,3.20
2022-10-26T05:44:55.977Z,3.20
2022-10-26T05:47:27.934Z,3.30
2022-10-26T05:49:59.772Z,3.20
2022-10-26T05:52:34.441Z,3.80
2022-10-26T05:57:49.500Z,3.40
2022-10-26T06:00:21.699Z,3.40
2022-10-26T06:03:12.481Z,3.80
2022-10-26T06:05:52.600Z,3.80
2022-10-26T06:08:30.441Z,3.20
2022-10-26T06:11:01.749Z,3.30
2022-10-26T06:13:35.881Z,3.90
2022-10-26T06:16:31.647Z,3.60
2022-10-26T06:19:20.038Z,3.80
2022-10-26T06:22:03.912Z,3.90
2022-10-26T06:24:42.468Z,4.00
2022-10-26T06:27:21.865Z,4.30
2022-10-26T06:29:59.567Z,4.30
2022-10-26T06:32:29.208Z,4.40
2022-10-26T06:35:07.584Z,4.50
2022-10-26T06:37:39.565Z,4.70
2022-10-26T06:40:13.052Z,5.00
2022-10-26T06:42:43.493Z,5.20
2022-10-26T06:45:15.783Z,5.30
2022-10-26T06:47:49.728Z,5.30
2022-10-26T06:50:49.567Z,6.40
2022-10-26T06:53:26.251Z,5.50
2022-10-26T06:55:59.580Z,5.70
2022-10-26T06:58:35.672Z,5.80
2022-10-26T07:01:06.798Z,5.90
2022-10-26T07:03:36.395Z,6.10
2022-10-26T07:06:12.098Z,6.30
2022-10-26T07:08:42.173Z,6.70
2022-10-26T07:16:33.295Z,6.90
2022-10-26T07:19:06.883Z,7.10
2022-10-26T07:22:05.110Z,7.40
2022-10-26T07:24:34.619Z,7.60
2022-10-26T07:27:06.914Z,7.80
2022-10-26T07:29:37.020Z,8.00
2022-10-26T07:32:07.221Z,8.00
2022-10-26T07:34:38.618Z,8.30
2022-10-26T07:37:08.166Z,8.50
2022-10-26T07:39:39.858Z,8.70
2022-10-26T07:42:09.971Z,8.90
2022-10-26T07:44:39.249Z,9.10
2022-10-26T07:47:08.401Z,9.30
2022-10-26T07:49:41.934Z,9.50
2022-10-26T07:52:13.142Z,9.70
2022-10-26T07:54:48.129Z,9.90
2022-10-26T07:57:24.682Z,10.30
2022-10-26T07:59:54.589Z,10.70
2022-10-26T08:02:24.354Z,10.90
2022-10-26T08:04:55.425Z,11.20
2022-10-26T08:07:30.076Z,11.50
2022-10-26T08:10:01.052Z,12.20
2022-10-26T08:12:31.605Z,12.30
2022-10-26T08:15:08.139Z,12.60
2022-10-26T08:17:37.652Z,13.60
2022-10-26T08:20:09.632Z,14.80
2022-10-26T08:22:40.832Z,17.50
2022-10-26T08:25:11.217Z,17.00
2022-10-26T08:27:40.372Z,17.70
2022-10-26T08:30:10.409Z,18.40
2022-10-26T08:32:39.833Z,17.90
2022-10-26T08:35:14.186Z,17.40
2022-10-26T08:37:44.892Z,17.70
2022-10-26T08:40:19.156Z,18.20
2022-10-26T08:42:52.448Z,18.30
2022-10-26T08:45:35.825Z,18.60
2022-10-26T08:48:09.796Z,19.30
2022-10-26T08:50:44.973Z,17.80
2022-10-26T08:53:24.165Z,20.90
2022-10-26T08:56:00.244Z,21.80
2022-10-26T08:58:33.921Z,22.30
2022-10-26T09:01:03.878Z,21.80
2022-10-26T09:03:33.908Z,22.20
2022-10-26T09:06:18.317Z,26.60
2022-10-26T09:09:01.852Z,28.60
2022-10-26T09:11:45.099Z,29.20
2022-10-26T09:14:19.737Z,24.60
2022-10-26T09:16:59.646Z,23.40
2022-10-26T09:19:56.575Z,25.50
2022-10-26T09:22:34.718Z,27.70
2022-10-26T09:25:14.083Z,28.90
2022-10-26T09:27:48.831Z,29.50
2022-10-26T09:30:20.535Z,28.30
2022-10-26T09:32:53.788Z,26.60
2022-10-26T09:35:25.775Z,26.60
2022-10-26T09:38:00.013Z,27.60
2022-10-26T09:40:37.979Z,28.00
2022-10-26T09:43:13.965Z,26.10
2022-10-26T09:45:47.747Z,27.20
2022-10-26T09:48:22.416Z,27.10
2022-10-26T09:50:54.498Z,29.60
2022-10-26T09:53:25.242Z,28.80
2022-10-26T09:56:05.807Z,29.60
2022-10-26T09:58:38.930Z,29.70
2022-10-26T10:01:07.733Z,28.80
2022-10-26T10:03:36.806Z,26.00
2022-10-26T10:06:20.638Z,26.60
2022-10-26T10:09:11.145Z,30.10
2022-10-26T10:11:41.989Z,30.70
2022-10-26T10:14:17.992Z,30.00
2022-10-26T10:16:56.881Z,30.40
2022-10-26T10:19:27.758Z,30.50
2022-10-26T10:22:00.885Z,29.80
2022-10-26T10:24:32.997Z,31.10
2022-10-26T10:27:04.896Z,30.70
2022-10-26T10:29:35.273Z,30.20
2022-10-26T10:32:05.933Z,29.40
2022-10-26T10:34:36.998Z,30.70
2022-10-26T10:37:06.834Z,30.90
2022-10-26T10:39:41.206Z,31.50
2022-10-26T10:42:19.759Z,31.60
2022-10-26T10:44:52.412Z,29.10
2022-10-26T10:47:25.404Z,30.40
2022-10-26T10:50:00.756Z,31.90
2022-10-26T10:52:31.952Z,31.30
2022-10-26T10:55:22.281Z,32.40
2022-10-26T10:58:08.412Z,31.40
2022-10-26T11:00:39.217Z,32.30
2022-10-26T11:03:25.029Z,32.70
2022-10-26T11:06:09.684Z,32.20
2022-10-26T11:08:44.522Z,28.80
2022-10-26T11:11:18.501Z,31.10
2022-10-26T11:13:53.799Z,29.80
2022-10-26T11:16:27.800Z,31.50
2022-10-26T11:19:00.548Z,33.00
2022-10-26T11:21:32.192Z,33.50
2022-10-26T11:24:13.759Z,31.30
2022-10-26T11:26:49.612Z,32.50
2022-10-26T11:29:26.375Z,31.10
2022-10-26T11:32:01.931Z,29.00
2022-10-26T11:34:39.292Z,28.10
2022-10-26T11:37:14.574Z,30.60
2022-10-26T11:39:47.463Z,31.90
2022-10-26T11:42:30.094Z,33.20
2022-10-26T11:45:04.711Z,31.30
2022-10-26T11:47:42.647Z,30.90
2022-10-26T11:50:18.734Z,33.20
2022-10-26T11:52:53.967Z,31.90
2022-10-26T11:55:24.140Z,33.10
2022-10-26T11:57:56.463Z,33.10
2022-10-26T12:00:26.212Z,32.90
2022-10-26T12:02:59.120Z,32.30
2022-10-26T12:05:36.066Z,33.00
2022-10-26T12:08:11.576Z,31.10
2022-10-26T12:10:44.945Z,31.30
2022-10-26T12:13:27.502Z,32.70
2022-10-26T12:16:04.391Z,34.30
2022-10-26T12:18:57.263Z,31.50
2022-10-26T12:21:30.196Z,31.60
2022-10-26T12:24:01.497Z,33.70
2022-10-26T12:26:42.374Z,34.20
2022-10-26T12:29:37.306Z,33.80
2022-10-26T12:32:51.791Z,29.50
2022-10-26T12:35:42.085Z,33.30
2022-10-26T12:38:44.845Z,34.60
2022-10-26T12:41:22.127Z,33.90
2022-10-26T12:43:51.603Z,29.80
2022-10-26T12:46:46.558Z,29.10
2022-10-26T12:50:08.825Z,31.80
2022-10-26T12:52:57.449Z,31.10
2022-10-26T12:56:03.453Z,30.80
2022-10-26T12:59:05.749Z,29.80
2022-10-26T13:02:00.553Z,29.30
2022-10-26T13:05:09.254Z,33.40
2022-10-26T13:07:39.984Z,32.00
2022-10-26T13:10:22.060Z,30.40
2022-10-26T13:12:55.013Z,31.30
2022-10-26T13:15:27.465Z,31.50
2022-10-26T13:18:18.632Z,29.30
2022-10-26T13:21:00.763Z,29.70
2022-10-26T13:23:33.155Z,31.60
2022-10-26T13:26:09.684Z,32.60
2022-10-26T13:28:49.506Z,33.40
2022-10-26T13:31:58.575Z,33.80
2022-10-26T13:34:32.999Z,32.90
2022-10-26T13:37:08.608Z,33.10
2022-10-26T13:39:41.047Z,29.90
2022-10-26T13:42:17.543Z,30.90
2022-10-26T13:44:53.389Z,31.50
2022-10-26T13:47:30.075Z,29.50
2022-10-26T13:50:06.465Z,31.80
2022-10-26T13:52:40.016Z,31.40
2022-10-26T13:55:16.851Z,27.60
2022-10-26T13:57:48.645Z,29.80
2022-10-26T14:00:21.712Z,30.50
2022-10-26T14:02:51.304Z,31.60
2022-10-26T14:05:24.691Z,30.30
2022-10-26T14:07:57.598Z,30.60
2022-10-26T14:10:30.309Z,30.30
2022-10-26T14:13:00.538Z,28.10
2022-10-26T14:15:32.276Z,27.90
2022-10-26T14:18:04.539Z,28.50
2022-10-26T14:20:34.956Z,26.80
2022-10-26T14:23:07.788Z,25.10
2022-10-26T14:25:47.986Z,24.00
2022-10-26T14:28:26.371Z,24.40
2022-10-26T14:30:57.594Z,24.00
2022-10-26T14:33:30.490Z,23.40
2022-10-26T14:36:01.051Z,22.30
2022-10-26T14:38:38.649Z,21.20
2022-10-26T14:41:08.082Z,21.90
2022-10-26T14:43:37.074Z,22.20
2022-10-26T14:46:06.383Z,22.30
2022-10-26T14:48:53.774Z,21.60
2022-10-26T14:51:28.747Z,21.10
2022-10-26T14:54:01.356Z,21.20
2022-10-26T14:56:40.133Z,20.80
2022-10-26T14:59:17.301Z,21.10
2022-10-26T15:01:52.108Z,20.40
2022-10-26T15:04:33.963Z,19.60
2022-10-26T15:07:21.770Z,18.70
2022-10-26T15:09:52.469Z,18.10
2022-10-26T15:12:40.810Z,17.70
2022-10-26T15:17:54.716Z,16.80
2022-10-26T15:20:27.737Z,16.40
2022-10-26T15:23:00.355Z,16.00
2022-10-26T15:25:35.119Z,15.60
2022-10-26T15:28:13.841Z,15.10
2022-10-26T15:31:15.609Z,14.90
2022-10-26T15:34:18.050Z,14.60
2022-10-26T15:36:47.363Z,14.50
2022-10-26T15:39:36.118Z,14.30
2022-10-26T15:42:12.660Z,14.10
2022-10-26T15:44:46.773Z,13.90
2022-10-26T15:47:21.351Z,13.50
2022-10-26T15:49:50.981Z,13.20
2022-10-26T15:52:49.395Z,13.10
2022-10-26T15:55:20.292Z,12.70
2022-10-26T15:58:00.391Z,12.50
2022-10-26T16:00:29.582Z,12.60
2022-10-26T16:02:58.764Z,12.30
2022-10-26T16:08:00.609Z,12.20
2022-10-26T16:10:31.096Z,11.70
2022-10-26T16:13:02.749Z,11.70
2022-10-26T16:15:35.092Z,11.60
2022-10-26T16:18:04.620Z,11.50
2022-10-26T16:20:33.800Z,11.30
2022-10-26T16:23:07.295Z,11.30
2022-10-26T16:25:44.632Z,11.20
2022-10-26T16:28:16.323Z,11.10
2022-10-26T16:30:46.057Z,10.90
2022-10-26T16:33:15.379Z,10.80
2022-10-26T16:35:44.635Z,10.80
2022-10-26T16:38:13.888Z,10.70
2022-10-26T16:40:45.420Z,10.70
2022-10-26T16:43:14.677Z,10.70
2022-10-26T16:45:44.148Z,10.60
2022-10-26T16:48:15.955Z,10.60
2022-10-26T16:50:45.835Z,10.60
2022-10-26T16:53:15.495Z,10.50
2022-10-26T16:55:46.865Z,10.40
2022-10-26T16:58:16.561Z,10.20
2022-10-26T17:00:46.039Z,10.00
2022-10-26T17:03:18.334Z,9.90
2022-10-26T17:05:55.897Z,9.90
2022-10-26T17:08:30.195Z,9.90
2022-10-26T17:11:08.904Z,9.80
2022-10-26T17:13:38.822Z,9.60
2022-10-26T17:16:14.903Z,9.50
2022-10-26T17:18:48.675Z,9.30
2022-10-26T17:21:30.951Z,9.10
2022-10-26T17:24:04.050Z,9.10
2022-10-26T17:26:34.623Z,9.20
2022-10-26T17:29:03.920Z,9.20
2022-10-26T17:31:33.271Z,9.40
2022-10-26T17:34:02.646Z,9.10
2022-10-26T17:36:32.527Z,8.50
2022-10-26T17:39:02.601Z,8.90
2022-10-26T17:41:32.668Z,8.70
2022-10-26T17:44:03.431Z,8.40
2022-10-26T17:46:34.575Z,8.20
2022-10-26T17:49:04.224Z,8.20
2022-10-26T17:51:33.383Z,8.10
2022-10-26T17:54:07.904Z,7.90
2022-10-26T17:56:37.365Z,8.00
2022-10-26T17:59:14.126Z,8.10
2022-10-26T18:01:44.698Z,8.30
2022-10-26T18:04:14.044Z,8.30
2022-10-26T18:06:48.494Z,8.20
2022-10-26T18:09:17.787Z,8.30
2022-10-26T18:11:50.714Z,10.90
2022-10-26T18:14:24.253Z,8.40
2022-10-26T18:16:53.777Z,8.50
2022-10-26T18:19:24.670Z,8.30
2022-10-26T18:21:55.079Z,8.20
2022-10-26T18:24:24.850Z,8.10
2022-10-26T18:26:54.085Z,8.00
2022-10-26T18:29:25.310Z,8.00
2022-10-26T18:31:55.566Z,8.00
2022-10-26T18:34:25.701Z,7.90
2022-10-26T18:36:56.574Z,7.80
2022-10-26T18:39:26.098Z,7.80
2022-10-26T18:41:56.316Z,7.70
2022-10-26T18:44:28.017Z,7.80
2022-10-26T18:46:58.574Z,7.80
2022-10-26T18:49:27.885Z,7.70
2022-10-26T18:51:57.078Z,7.70
2022-10-26T18:54:28.310Z,7.60
2022-10-26T18:57:01.626Z,7.70
2022-10-26T18:59:32.497Z,7.70
2022-10-26T19:02:01.691Z,7.70
2022-10-26T19:04:30.746Z,7.70
2022-10-26T19:06:59.844Z,7.70
2022-10-26T19:09:29.396Z,7.70
2022-10-26T19:12:01.414Z,7.80
2022-10-26T19:14:35.216Z,7.60
2022-10-26T19:17:04.414Z,7.60
2022-10-26T19:19:33.233Z,7.50
2022-10-26T19:22:03.249Z,7.40
2022-10-26T19:24:33.013Z,7.50
2022-10-26T19:27:02.832Z,7.50
2022-10-26T19:29:31.945Z,7.40
2022-10-26T19:32:03.568Z,7.20
2022-10-26T19:34:32.924Z,7.30
2022-10-26T19:37:02.021Z,7.10
2022-10-26T19:39:31.392Z,7.10
2022-10-26T19:42:01.001Z,7.10
2022-10-26T19:44:30.556Z,7.10
2022-10-26T19:46:59.375Z,7.10
2022-10-26T19:49:31.049Z,7.10
2022-10-26T19:52:01.689Z,6.80
2022-10-26T19:54:30.900Z,6.90
2022-10-26T19:56:59.940Z,6.90
2022-10-26T19:59:29.214Z,6.80
2022-10-26T20:02:00.716Z,6.80
2022-10-26T20:04:31.777Z,6.60
2022-10-26T20:07:01.223Z,6.60
2022-10-26T20:09:31.505Z,6.50
2022-10-26T20:12:02.612Z,6.50
2022-10-26T20:14:32.282Z,6.50
2022-10-26T20:17:01.460Z,6.40
2022-10-26T20:19:32.039Z,6.60
2022-10-26T20:22:02.023Z,6.60
2022-10-26T20:24:31.467Z,6.50
2022-10-26T20:27:00.464Z,5.40
2022-10-26T20:29:29.491Z,6.40
2022-10-26T20:32:00.316Z,6.40
2022-10-26T20:34:30.256Z,6.40
2022-10-26T20:37:01.204Z,6.40
2022-10-26T20:39:30.667Z,6.30
2022-10-26T20:42:00.200Z,6.20
2022-10-26T20:44:34.795Z,6.20
2022-10-26T20:47:04.662Z,6.20
2022-10-26T20:49:35.074Z,6.70
2022-10-26T20:52:20.860Z,6.40
2022-10-26T20:55:00.836Z,6.20
2022-10-26T20:57:33.844Z,5.90
2022-10-26T21:00:09.697Z,5.80
2022-10-26T21:02:40.643Z,5.60
2022-10-26T21:05:10.269Z,5.60
2022-10-26T21:07:41.519Z,5.60
2022-10-26T21:10:13.562Z,5.60
2022-10-26T21:12:42.948Z,5.60
2022-10-26T21:15:14.254Z,5.50
2022-10-26T21:17:43.672Z,5.50
2022-10-26T21:20:15.267Z,5.60
2022-10-26T21:22:49.506Z,5.50
2022-10-26T21:25:19.942Z,5.50
2022-10-26T21:27:52.005Z,5.40
2022-10-26T21:30:21.130Z,5.30
2022-10-26T21:32:53.903Z,5.30
2022-10-26T21:35:23.606Z,5.20
2022-10-26T21:37:54.276Z,5.10
2022-10-26T21:40:24.196Z,5.10
2022-10-26T21:42:53.502Z,5.20
2022-10-26T21:45:22.622Z,5.20
2022-10-26T21:47:54.802Z,5.20
2022-10-26T21:50:24.534Z,5.10
2022-10-26T21:52:56.319Z,5.10
2022-10-26T21:55:25.511Z,4.90
2022-10-26T21:57:55.015Z,4.90
2022-10-26T22:00:26.041Z,5.00
2022-10-26T22:03:00.565Z,5.10
2022-10-26T22:05:30.525Z,5.10
2022-10-26T22:08:01.278Z,5.20
2022-10-26T22:10:32.326Z,5.30
2022-10-26T22:13:01.526Z,5.30
2022-10-26T22:15:46.285Z,5.20
2022-10-26T22:18:18.989Z,4.30
2022-10-26T22:20:57.784Z,3.60
2022-10-26T22:23:34.624Z,5.00
2022-10-26T22:26:05.480Z,5.20
2022-10-26T22:28:46.473Z,5.50
2022-10-26T22:31:20.752Z,5.50
2022-10-26T22:33:53.908Z,5.50
2022-10-26T22:36:25.949Z,5.50
2022-10-26T22:38:56.843Z,5.50
2022-10-26T22:41:26.975Z,5.40
2022-10-26T22:43:56.296Z,5.40
2022-10-26T22:46:26.441Z,5.30
2022-10-26T22:48:56.617Z,5.30
2022-10-26T22:51:28.671Z,5.50
2022-10-26T22:54:01.800Z,5.70
2022-10-26T22:56:33.260Z,5.80
2022-10-26T22:59:03.101Z,5.80
2022-10-26T23:01:37.241Z,5.90
2022-10-26T23:04:09.671Z,5.90
2022-10-26T23:06:39.421Z,6.00
2022-10-26T23:09:26.079Z,6.00
2022-10-26T23:11:55.672Z,6.00
2022-10-26T23:14:31.009Z,6.00
2022-10-26T23:16:59.779Z,6.10
2022-10-26T23:19:29.199Z,6.00
2022-10-26T23:21:58.412Z,6.20
2022-10-26T23:24:29.412Z,6.20
2022-10-26T23:26:58.739Z,6.30
2022-10-26T23:29:27.963Z,6.20
2022-10-26T23:31:57.543Z,6.30
2022-10-26T23:34:27.014Z,6.40
2022-10-26T23:36:56.819Z,6.40
2022-10-26T23:39:26.278Z,6.30
2022-10-26T23:41:57.154Z,6.30
2022-10-26T23:44:26.526Z,6.30
2022-10-26T23:46:56.190Z,6.30
2022-10-26T23:49:25.260Z,6.50
2022-10-26T23:51:54.490Z,6.70
2022-10-26T23:54:23.887Z,6.80
2022-10-26T23:56:52.965Z,6.90
2022-10-26T23:59:23.889Z,7.00
